CYOWMDPP

Guest
Details From CYOW - Ottawa Macdonald Cartier Intl
To MDPP - Puerto Plata Gregorio Luperon Intl
Flight Number -
Tags Generated
Created
Modified
Stats Distance 1,557 nm / 2,883 km
Max Altitude 0 ft / 0 m
Waypoints 4
Social Downloads 0
Likes 0
Share VATSIM

Download

Looking for another format? Having issues loading an existing format? Contact us
Advertisement - Login to hide

Notes

Generated

Route

CYOW FEHDU PIVAN MDPP

ID Type Via Altitude Latitude Longitude Leg Dist Tot Dist Heading (true) Name
O CYOW APT - 0 ft / 0 m 45.32611˚ -75.68903˚ - 0 nm - -
FEHDU FIX - 0 ft / 0 m 41.62819˚ -74.72108˚ 226 nm 226 nm 169° / 170° -
PIVAN FIX - 0 ft / 0 m 19.95225˚ -70.62894˚ 1318 nm 1544 nm 170° / 172° -
O MDPP APT - 0 ft / 0 m 19.75384˚ -70.58409˚ 12 nm 1556 nm 168° / 168° -

Altitude Profile

Advertisement - Login to hide

Weather


0- 5 10 15 20 25 30 35+ Temperature / ° C

Clouds and Precipitation
Forecast for 2017-12-16 00:00 UTC. Updated an hour ago

Ground ~20,000 ft ~40,000 ft Winds

CYOW

Details ICAO CYOW (YOW)
Name Ottawa Macdonald Cartier Intl
Region Canada
Timezone America/Toronto (UTC-5.0)
Stats Elevation 374 ft / 114 m (AMSL)
Location 45.322817° -75.671438°
Runways 3
Magnetic Variation 13.246° W

METAR

CYOW 152200Z 05009KT 8SM -SN OVC028 M12/M15 A2981 RMK SC8 SLP107

Decode

TAF

TAF CYOW 152038Z 1521/1618 06006KT P6SM -SN SCT025 BKN050 TEMPO 1521/1602 2SM -SN BKN020 OVC050 FM160200 07008KT 11/2SM -SN FEW008 OVC012 FM160800 08008KT 4SM -SN BKN020 OVC080 FM161000 24010KT P6SM FEW030 BKN100 FM161200 27010G20KT P6SM FEW030 SCT090 FM161500 27015G25KT P6SM SCT030 RMK NXT FCST BY 160000Z

Decode

Departure Runways

ID Width Length Bearing (true) Bearing (mag) Surface Threshold Offset Overrun Length
04 75 ft / 23 m 3,304 ft / 1,007 m 25.50° 38.75° Asphalt 0 ft / 0 m 0 ft / 0 m
07 200 ft / 61 m 8,011 ft / 2,442 m 57.16° 70.41° Asphalt 0 ft / 0 m 150 ft / 46 m
14 200 ft / 61 m 9,978 ft / 3,041 m 126.44° 139.69° Asphalt 0 ft / 0 m 150 ft / 46 m
22 75 ft / 23 m 3,304 ft / 1,007 m 205.50° 218.75° Asphalt 0 ft / 0 m 0 ft / 0 m
25 200 ft / 61 m 8,011 ft / 2,442 m 237.18° 250.43° Asphalt 0 ft / 0 m 155 ft / 47 m
32 200 ft / 61 m 9,978 ft / 3,041 m 306.46° 319.71° Asphalt 0 ft / 0 m 150 ft / 46 m

MDPP

Details ICAO MDPP (POP)
Name Puerto Plata Gregorio Luperon Intl
Region Dominican Republic
Timezone America/Santo_Domingo (UTC-4.0)
Stats Elevation 15 ft / 5 m (AMSL)
Location 19.757900° -70.570035°
Runways 1
Magnetic Variation 11.228° W

METAR

MDPP 152200Z 09010KT 9999 FEW020 27/23 Q1015

Decode

TAF

Not found

Destination Runways

ID Width Length Bearing (true) Bearing (mag) Surface Threshold Offset Overrun Length
08 151 ft / 46 m 10,101 ft / 3,079 m 72.95° 84.18° Asphalt 0 ft / 0 m 0 ft / 0 m
26 151 ft / 46 m 10,101 ft / 3,079 m 252.95° 264.18° Asphalt 0 ft / 0 m 0 ft / 0 m

Popular Alternatives